createdAt,value
2022-11-06T10:51:57.109Z,19.84
2022-11-06T10:54:28.566Z,19.25
2022-11-06T10:56:59.484Z,19.53
2022-11-06T10:59:29.505Z,18.94
2022-11-06T11:01:57.594Z,19.63
2022-11-06T11:04:24.285Z,20.32
2022-11-06T11:07:11.072Z,19.40
2022-11-06T11:09:44.751Z,19.50
2022-11-06T11:12:33.110Z,20.03
2022-11-06T11:15:11.854Z,20.34
2022-11-06T11:17:41.752Z,19.81
2022-11-06T11:20:29.497Z,19.72
2022-11-06T11:23:29.257Z,20.25
2022-11-06T11:25:58.476Z,19.63
2022-11-06T11:28:32.244Z,19.35
2022-11-06T11:31:06.307Z,19.07
2022-11-06T11:33:34.399Z,19.90
2022-11-06T11:36:04.721Z,20.15
2022-11-06T11:38:32.261Z,20.90
2022-11-06T11:41:12.864Z,20.44
2022-11-06T11:43:44.068Z,19.66
2022-11-06T11:46:27.027Z,20.74
2022-11-06T11:49:02.480Z,20.82
2022-11-06T11:51:35.129Z,20.96
2022-11-06T11:54:16.698Z,21.53
2022-11-06T11:59:47.032Z,21.11
2022-11-06T12:02:26.545Z,21.69
2022-11-06T12:05:03.788Z,20.91
2022-11-06T12:07:46.248Z,21.70
2022-11-06T12:10:39.429Z,20.91
2022-11-06T12:13:08.097Z,19.97
2022-11-06T12:15:45.837Z,20.16
2022-11-06T12:18:16.067Z,20.53
2022-11-06T12:20:59.512Z,20.50
2022-11-06T12:23:26.207Z,21.58
2022-11-06T12:26:07.885Z,22.01
2022-11-06T12:28:36.181Z,21.65
2022-11-06T12:31:23.167Z,20.93
2022-11-06T12:34:07.906Z,20.18
2022-11-06T12:36:42.418Z,20.88
2022-11-06T12:39:25.292Z,20.76
2022-11-06T12:41:56.231Z,21.92
2022-11-06T12:44:25.522Z,22.24
2022-11-06T12:47:05.526Z,22.11
2022-11-06T12:49:32.090Z,22.05
2022-11-06T12:52:18.972Z,20.92
2022-11-06T12:54:55.840Z,21.64
2022-11-06T12:57:33.529Z,22.20
2022-11-06T13:00:20.267Z,21.18
2022-11-06T13:03:08.889Z,21.10
2022-11-06T13:05:38.786Z,21.61
2022-11-06T13:08:27.096Z,21.60
2022-11-06T13:11:06.879Z,20.77
2022-11-06T13:13:33.746Z,19.84
2022-11-06T13:16:40.616Z,20.54
2022-11-06T13:19:16.771Z,20.88
2022-11-06T13:24:50.952Z,20.09
2022-11-06T13:27:39.301Z,20.36
2022-11-06T13:30:21.035Z,20.62
2022-11-06T13:33:12.129Z,20.44
2022-11-06T13:35:41.679Z,19.67
2022-11-06T13:38:13.373Z,20.38
2022-11-06T13:40:44.581Z,20.72
2022-11-06T13:43:20.457Z,18.75
2022-11-06T13:45:51.199Z,19.18
2022-11-06T13:48:36.992Z,19.53
2022-11-06T13:51:12.841Z,19.45
2022-11-06T13:54:00.088Z,19.05
2022-11-06T13:56:45.736Z,19.76
2022-11-06T13:59:36.374Z,19.37
2022-11-06T14:02:22.090Z,19.50
2022-11-06T14:05:13.530Z,18.94
2022-11-06T14:07:43.208Z,19.40
2022-11-06T14:10:25.509Z,18.82
2022-11-06T14:12:52.837Z,18.57
2022-11-06T14:15:23.619Z,18.51
2022-11-06T14:18:08.006Z,18.58
2022-11-06T14:20:42.269Z,19.97
2022-11-06T14:23:27.929Z,19.42
2022-11-06T14:26:14.544Z,18.95
2022-11-06T14:28:52.463Z,19.85
2022-11-06T14:31:48.893Z,18.69
2022-11-06T14:34:50.813Z,15.97
2022-11-06T14:37:28.210Z,18.20
2022-11-06T14:39:58.357Z,18.88
2022-11-06T14:42:32.594Z,19.29
2022-11-06T14:45:02.734Z,18.95
2022-11-06T14:47:30.564Z,19.05
2022-11-06T14:49:59.612Z,19.41
2022-11-06T14:52:27.517Z,19.09
2022-11-06T14:55:02.069Z,19.41
2022-11-06T14:57:41.705Z,19.82
2022-11-06T15:00:12.399Z,19.99
2022-11-06T15:02:40.761Z,19.07
2022-11-06T15:05:14.492Z,19.41
2022-11-06T15:10:43.527Z,18.43
2022-11-06T15:13:14.678Z,19.05
2022-11-06T15:15:43.408Z,18.19
2022-11-06T15:18:16.437Z,18.90
2022-11-06T15:20:45.981Z,19.16
2022-11-06T15:23:34.917Z,18.83
2022-11-06T15:26:06.952Z,18.46
2022-11-06T15:28:40.953Z,18.42
2022-11-06T15:31:15.272Z,18.96
2022-11-06T15:33:56.394Z,19.17
2022-11-06T15:36:24.604Z,19.07
2022-11-06T15:38:51.773Z,19.25
2022-11-06T15:41:22.501Z,18.43
2022-11-06T15:43:57.518Z,18.61
2022-11-06T15:46:29.929Z,18.97
2022-11-06T15:49:15.946Z,18.87
2022-11-06T15:51:53.967Z,18.03
2022-11-06T15:54:50.150Z,17.83
2022-11-06T15:57:25.393Z,18.13
2022-11-06T16:03:03.405Z,18.59
2022-11-06T16:05:52.522Z,17.69
2022-11-06T16:08:27.636Z,18.52
2022-11-06T16:10:55.600Z,16.91
2022-11-06T16:13:48.815Z,17.58
2022-11-06T16:16:50.535Z,17.87
2022-11-06T16:19:38.430Z,17.82
2022-11-06T16:22:12.537Z,17.56
2022-11-06T16:24:41.911Z,17.50
2022-11-06T16:27:44.897Z,18.00
2022-11-06T16:30:28.685Z,18.00
2022-11-06T16:33:14.191Z,18.00
2022-11-06T16:35:48.968Z,16.61
2022-11-06T16:38:40.296Z,17.91
2022-11-06T16:41:12.224Z,17.88
2022-11-06T16:43:45.058Z,18.49
2022-11-06T16:46:13.169Z,17.55
2022-11-06T16:48:45.113Z,17.97
2022-11-06T16:51:13.543Z,18.07
2022-11-06T16:54:03.419Z,18.23
2022-11-06T16:56:34.213Z,17.80
2022-11-06T16:59:02.077Z,17.76
2022-11-06T17:01:37.281Z,17.52
2022-11-06T17:04:05.371Z,18.37
2022-11-06T17:06:35.825Z,18.25
2022-11-06T17:09:09.139Z,17.61
2022-11-06T17:11:42.458Z,18.01
2022-11-06T17:14:16.686Z,18.04
2022-11-06T17:16:52.192Z,17.36
2022-11-06T17:19:19.749Z,17.83
2022-11-06T17:21:50.310Z,17.56
2022-11-06T17:24:36.023Z,17.77
2022-11-06T17:27:04.212Z,17.95
2022-11-06T17:29:36.678Z,17.42
2022-11-06T17:32:05.391Z,17.44
2022-11-06T17:34:32.915Z,17.99
2022-11-06T17:37:01.452Z,17.80
2022-11-06T17:39:30.101Z,16.34
2022-11-06T17:41:58.237Z,17.02
2022-11-06T17:44:26.349Z,17.60
2022-11-06T17:46:57.663Z,17.65
2022-11-06T17:49:26.797Z,16.87
2022-11-06T17:52:03.894Z,17.42
2022-11-06T17:54:33.667Z,17.50
2022-11-06T17:57:02.638Z,17.65
2022-11-06T17:59:34.320Z,17.55
2022-11-06T18:02:01.259Z,18.12
2022-11-06T18:04:35.213Z,17.72
2022-11-06T18:07:02.394Z,17.52
2022-11-06T18:09:31.678Z,17.22
2022-11-06T18:11:58.897Z,17.44
2022-11-06T18:14:26.099Z,16.45
2022-11-06T18:16:55.488Z,17.37
2022-11-06T18:19:23.566Z,17.81
2022-11-06T18:21:50.403Z,17.69
2022-11-06T18:24:17.599Z,17.31
2022-11-06T18:26:44.474Z,16.48
2022-11-06T18:29:12.354Z,16.84
2022-11-06T18:31:39.213Z,16.76
2022-11-06T18:34:07.302Z,17.25
2022-11-06T18:36:35.152Z,17.28
2022-11-06T18:39:04.058Z,17.40
2022-11-06T18:41:30.741Z,16.92
2022-11-06T18:43:59.055Z,17.39
2022-11-06T18:46:27.794Z,17.28
2022-11-06T18:48:56.922Z,16.50
2022-11-06T18:51:34.387Z,17.10
2022-11-06T18:54:04.550Z,16.81
2022-11-06T18:56:32.011Z,16.64
2022-11-06T18:58:59.907Z,17.15
2022-11-06T19:01:26.925Z,17.17
2022-11-06T19:03:53.565Z,17.28
2022-11-06T19:06:24.058Z,17.26
2022-11-06T19:08:51.684Z,16.58
2022-11-06T19:11:20.382Z,16.10
2022-11-06T19:13:48.759Z,16.00
2022-11-06T19:16:19.442Z,16.73
2022-11-06T19:21:29.095Z,17.36
2022-11-06T19:24:10.177Z,16.42
2022-11-06T19:26:40.921Z,16.71
2022-11-06T19:29:14.085Z,17.08
2022-11-06T19:31:42.250Z,17.29
2022-11-06T19:34:25.878Z,16.94
2022-11-06T19:39:35.599Z,16.98
2022-11-06T19:42:02.502Z,16.96
2022-11-06T19:44:29.697Z,16.66
2022-11-06T19:47:10.358Z,16.62
2022-11-06T19:49:47.224Z,17.71
2022-11-06T19:52:42.943Z,16.77
2022-11-06T19:55:24.644Z,16.83
2022-11-06T19:57:54.506Z,17.03
2022-11-06T20:00:21.186Z,16.68
2022-11-06T20:02:51.295Z,17.28
2022-11-06T20:05:19.338Z,17.39
2022-11-06T20:07:47.286Z,16.54
2022-11-06T20:10:14.551Z,16.87
2022-11-06T20:12:42.114Z,17.91
2022-11-06T20:15:09.402Z,16.70
2022-11-06T20:17:37.070Z,16.81
2022-11-06T20:20:04.138Z,16.69
2022-11-06T20:22:32.488Z,17.23
2022-11-06T20:24:59.182Z,16.91
2022-11-06T20:27:26.625Z,17.28
2022-11-06T20:29:54.722Z,17.15
2022-11-06T20:32:22.080Z,17.16
2022-11-06T20:34:49.206Z,17.38
2022-11-06T20:37:18.502Z,17.28
2022-11-06T20:39:47.233Z,16.69
2022-11-06T20:42:15.880Z,16.36
2022-11-06T20:44:45.894Z,16.00
2022-11-06T20:47:15.654Z,16.34
2022-11-06T20:49:45.689Z,16.29
2022-11-06T20:52:15.583Z,16.99
2022-11-06T20:54:47.256Z,16.90
2022-11-06T20:57:17.740Z,17.31
2022-11-06T20:59:45.861Z,16.46
2022-11-06T21:02:13.778Z,17.11
2022-11-06T21:04:41.803Z,17.47
2022-11-06T21:07:09.754Z,16.60
2022-11-06T21:09:40.227Z,16.60
2022-11-06T21:12:10.381Z,16.77
2022-11-06T21:14:37.749Z,16.60
2022-11-06T21:17:06.574Z,16.13
2022-11-06T21:19:38.619Z,16.43
2022-11-06T21:22:08.092Z,16.60
2022-11-06T21:24:40.941Z,16.21
2022-11-06T21:27:07.878Z,16.20
2022-11-06T21:29:34.586Z,16.29
2022-11-06T21:32:03.181Z,16.06
2022-11-06T21:34:29.805Z,16.17
2022-11-06T21:37:02.364Z,16.72
2022-11-06T21:39:33.158Z,15.54
2022-11-06T21:42:04.404Z,15.85
2022-11-06T21:44:34.257Z,16.13
2022-11-06T21:47:02.314Z,16.90
2022-11-06T21:49:29.994Z,16.55
2022-11-06T21:52:18.725Z,16.63
2022-11-06T21:55:08.381Z,16.97
2022-11-06T21:57:37.733Z,16.07
2022-11-06T22:00:06.098Z,16.99
2022-11-06T22:02:35.972Z,15.38
2022-11-06T22:05:07.745Z,15.79
2022-11-06T22:07:35.134Z,16.79
2022-11-06T22:10:01.842Z,16.85
2022-11-06T22:12:29.671Z,16.85
2022-11-06T22:14:57.511Z,16.36
2022-11-06T22:17:24.890Z,16.44
2022-11-06T22:19:52.839Z,16.73
2022-11-06T22:22:20.604Z,15.64
2022-11-06T22:24:48.588Z,14.65
2022-11-06T22:27:22.614Z,15.28
2022-11-06T22:29:49.835Z,16.32
2022-11-06T22:32:16.969Z,14.97
2022-11-06T22:34:44.744Z,15.51
2022-11-06T22:37:13.559Z,15.62
2022-11-06T22:39:46.745Z,15.86
2022-11-06T22:42:13.898Z,15.77
2022-11-06T22:44:41.912Z,16.12
2022-11-06T22:47:10.771Z,15.71
2022-11-06T22:49:38.932Z,14.92
2022-11-06T22:52:06.776Z,15.37
2022-11-06T22:54:34.360Z,15.21
2022-11-06T22:57:03.005Z,15.14
2022-11-06T22:59:29.784Z,15.75
2022-11-06T23:01:57.774Z,15.72
2022-11-06T23:04:26.330Z,14.97
2022-11-06T23:06:53.977Z,15.72
2022-11-06T23:09:20.564Z,15.09
2022-11-06T23:11:48.492Z,15.39
2022-11-06T23:14:16.593Z,15.09
2022-11-06T23:16:58.875Z,15.73
2022-11-06T23:19:28.694Z,14.90
2022-11-06T23:22:15.862Z,15.64
2022-11-06T23:24:43.649Z,16.07
2022-11-06T23:27:11.749Z,15.42
2022-11-06T23:29:38.549Z,15.09
2022-11-06T23:32:06.289Z,15.78
2022-11-06T23:34:34.247Z,15.74
2022-11-06T23:37:01.907Z,14.57
2022-11-06T23:39:40.838Z,15.51
2022-11-06T23:42:08.554Z,15.48
2022-11-06T23:44:56.928Z,15.33
2022-11-06T23:47:24.057Z,15.99
2022-11-06T23:49:51.432Z,15.72
2022-11-06T23:52:19.319Z,15.11
2022-11-06T23:54:47.228Z,14.69
2022-11-06T23:57:14.872Z,16.13
2022-11-06T23:59:41.795Z,15.95
